Terminal Aerodrome Forecast
Issued by NWS

Home | Current Version | Previous Version | Text Only | Print | Product List | Glossary On
Versions: 1 2 3 4 5 6 7 8 9 10 11 12 13 14 15 16 17 18 19 20 21 22 23 24 25 26 27 28 29 30 31 32 33 34 35 36 37 38 39 40 41
000
FTUS43 KPAH 041121
TAFOWB
TAF
KOWB 041121Z 0412/0512 00000KT 4SM BR SCT040
      TEMPO 0412/0413 2SM BR SCT006 BKN025
     FM041500 04003KT P6SM BKN035
     FM041800 03004KT P6SM SCT050
     FM050600 00000KT 4SM BR SKC=

USA.gov is the U.S. government's official web portal to all federal, state and local government web resources and services.